Time;durP1;ratioP1;P1;durP2;ratioP2;P2;SDS_P1;SDS_P2;PMS_P1;PMS_P2;Temp;Humidity;BMP_temperature;BMP_pressure;BME280_temperature;BME280_humidity;BME280_pressure;Samples;Min_cycle;Max_cycle;Signal;HPM_P1;HPM_P2
2022/05/30 00:01:32;;;;;;;7.40;0.80;;;12.10;86.30;;;;;;4964972;28;20031;-71
2022/05/30 00:03:58;;;;;;;5.88;0.77;;;12.10;86.50;;;;;;4957573;28;20034;-71
2022/05/30 00:06:25;;;;;;;7.85;1.70;;;12.00;86.50;;;;;;4960336;28;20073;-71
2022/05/30 00:08:51;;;;;;;5.95;1.10;;;12.00;86.50;;;;;;4976722;28;20062;-72
2022/05/30 00:11:17;;;;;;;4.82;1.25;;;12.00;86.70;;;;;;4976565;28;20053;-72
2022/05/30 00:13:44;;;;;;;6.00;0.73;;;12.00;86.80;;;;;;4994443;28;20022;-72
2022/05/30 00:16:13;;;;;;;6.15;0.90;;;11.90;86.80;;;;;;4977099;28;20034;-71
2022/05/30 00:18:39;;;;;;;5.50;1.08;;;11.90;86.90;;;;;;4994299;28;20037;-72
2022/05/30 00:21:05;;;;;;;5.50;0.80;;;11.80;87.00;;;;;;4994249;28;20080;-72
2022/05/30 00:23:31;;;;;;;3.80;0.68;;;11.80;87.10;;;;;;4976487;28;20492;-72
2022/05/30 00:25:57;;;;;;;9.60;1.10;;;11.70;87.20;;;;;;4993805;28;20025;-72
2022/05/30 00:28:23;;;;;;;4.82;1.00;;;11.70;87.40;;;;;;4993965;28;20038;-71
2022/05/30 00:30:49;;;;;;;6.22;1.50;;;11.70;87.50;;;;;;4976727;28;20077;-72
2022/05/30 00:33:16;;;;;;;6.07;0.90;;;11.70;87.60;;;;;;4976748;28;20442;-71
2022/05/30 00:35:43;;;;;;;9.02;1.35;;;11.60;87.70;;;;;;4993792;28;20410;-71
2022/05/30 00:38:09;;;;;;;7.10;1.15;;;11.50;87.80;;;;;;4990237;28;20073;-71
2022/05/30 00:40:36;;;;;;;8.65;1.10;;;11.50;87.90;;;;;;4972957;28;20407;-71
2022/05/30 00:43:22;;;;;;;7.00;1.20;;;11.50;88.00;;;;;;4957100;28;20035;-72
2022/05/30 00:45:48;;;;;;;4.50;0.73;;;11.40;88.00;;;;;;4977260;28;20027;-71
2022/05/30 00:48:15;;;;;;;4.30;0.93;;;11.40;88.10;;;;;;4978187;28;20034;-71
2022/05/30 00:50:41;;;;;;;6.45;0.82;;;11.40;88.20;;;;;;4993258;28;20568;-71
2022/05/30 00:53:07;;;;;;;4.90;0.80;;;11.40;88.60;;;;;;4996466;28;20026;-72
2022/05/30 00:55:34;;;;;;;6.65;1.15;;;11.30;88.60;;;;;;4979077;28;20035;-71
2022/05/30 00:58:01;;;;;;;4.05;0.80;;;11.30;88.90;;;;;;4997465;28;20106;-72
2022/05/30 01:00:28;;;;;;;6.07;1.00;;;11.30;89.00;;;;;;4980009;28;20508;-72
2022/05/30 01:08:29;;;;;;;7.18;1.13;;;11.20;90.00;;;;;;4997516;28;20093;-72
2022/05/30 01:10:55;;;;;;;6.97;1.40;;;11.20;89.60;;;;;;4995279;28;20081;-72
2022/05/30 01:13:21;;;;;;;7.45;1.08;;;11.20;89.70;;;;;;4997258;28;20106;-72
2022/05/30 01:15:46;;;;;;;9.85;1.27;;;11.20;89.90;;;;;;4996674;28;20113;-71
2022/05/30 01:18:33;;;;;;;6.80;0.98;;;11.20;90.00;;;;;;4997259;28;20094;-72
2022/05/30 01:21:05;;;;;;;7.78;1.20;;;11.20;90.10;;;;;;4997341;28;20023;-72
2022/05/30 01:23:52;;;;;;;7.55;1.00;;;11.10;90.10;;;;;;4995126;28;20212;-72
2022/05/30 01:26:20;;;;;;;4.57;1.00;;;11.10;90.10;;;;;;4979389;28;20029;-71
2022/05/30 01:29:07;;;;;;;9.23;1.43;;;11.10;90.20;;;;;;4979579;28;20057;-71
2022/05/30 01:31:33;;;;;;;5.75;1.00;;;11.10;90.20;;;;;;4979474;28;20038;-72
2022/05/30 01:33:59;;;;;;;4.55;0.90;;;11.10;90.30;;;;;;4996631;28;20026;-72
2022/05/30 01:36:27;;;;;;;6.57;0.80;;;11.00;90.30;;;;;;4979414;28;20117;-72
2022/05/30 01:38:54;;;;;;;4.75;1.00;;;11.00;90.30;;;;;;4987370;28;20066;-71
2022/05/30 01:41:19;;;;;;;3.97;0.95;;;10.90;90.30;;;;;;4977265;28;20146;-72
2022/05/30 01:43:45;;;;;;;6.82;1.10;;;10.90;90.30;;;;;;4991988;28;20062;-71
2022/05/30 01:46:15;;;;;;;4.55;0.85;;;10.90;90.30;;;;;;4975585;28;20034;-71
2022/05/30 01:48:41;;;;;;;8.07;1.13;;;10.90;90.40;;;;;;4977140;28;20034;-72
2022/05/30 01:51:06;;;;;;;4.85;0.82;;;10.90;90.40;;;;;;4977131;28;20084;-72
2022/05/30 01:53:32;;;;;;;5.15;1.40;;;10.90;90.40;;;;;;4967971;28;20042;-71
2022/05/30 01:55:58;;;;;;;9.25;1.33;;;10.90;90.40;;;;;;4995461;28;20041;-72
2022/05/30 01:58:24;;;;;;;6.83;1.30;;;10.80;90.40;;;;;;4996310;28;20057;-71
2022/05/30 02:00:49;;;;;;;5.37;1.37;;;10.80;90.40;;;;;;4977613;28;20058;-72
2022/05/30 02:03:15;;;;;;;8.33;1.53;;;10.80;90.50;;;;;;4977080;28;20105;-71
2022/05/30 02:05:41;;;;;;;5.60;1.10;;;10.80;90.50;;;;;;4959679;28;20079;-72
2022/05/30 02:08:07;;;;;;;6.80;1.38;;;10.70;90.50;;;;;;4986275;28;20485;-72
2022/05/30 02:10:34;;;;;;;6.45;1.10;;;10.70;90.60;;;;;;4976749;28;20027;-71
2022/05/30 02:13:00;;;;;;;5.67;1.20;;;10.70;90.60;;;;;;4976833;28;20034;-72
2022/05/30 02:15:26;;;;;;;6.70;1.20;;;10.70;90.70;;;;;;4976584;28;20039;-72
2022/05/30 02:17:52;;;;;;;5.88;1.05;;;10.70;90.70;;;;;;4976583;28;20526;-72
2022/05/30 02:20:18;;;;;;;4.83;1.40;;;10.70;90.80;;;;;;4959403;28;20033;-72
2022/05/30 02:22:44;;;;;;;7.73;1.30;;;10.70;90.80;;;;;;4978975;28;20034;-72
2022/05/30 02:25:12;;;;;;;6.23;1.40;;;10.70;90.80;;;;;;4969766;28;20118;-71
2022/05/30 02:27:38;;;;;;;12.53;1.77;;;10.70;90.80;;;;;;4991132;28;20038;-72
2022/05/30 02:30:05;;;;;;;6.73;1.40;;;10.60;90.70;;;;;;4991577;28;20738;-72
2022/05/30 02:32:31;;;;;;;3.47;1.13;;;10.60;90.70;;;;;;4976218;28;20066;-72
2022/05/30 02:37:40;;;;;;;9.00;1.40;;;10.50;90.70;;;;;;4970314;28;20050;-71
2022/05/30 02:40:07;;;;;;;6.27;1.43;;;10.50;90.80;;;;;;4975751;28;20050;-71
2022/05/30 02:42:32;;;;;;;4.80;1.30;;;10.50;90.90;;;;;;4975156;28;20042;-71
2022/05/30 02:44:59;;;;;;;4.90;1.23;;;10.30;90.90;;;;;;4976149;28;20038;-72
2022/05/30 02:47:24;;;;;;;9.37;1.60;;;10.40;91.00;;;;;;4974740;28;20042;-71
2022/05/30 02:49:50;;;;;;;9.47;1.67;;;10.40;91.10;;;;;;4975773;28;20125;-71
2022/05/30 02:52:15;;;;;;;6.53;1.90;;;10.40;91.20;;;;;;4957997;28;20042;-71
2022/05/30 02:54:41;;;;;;;7.37;1.63;;;10.30;91.20;;;;;;4975580;28;20035;-71
2022/05/30 02:57:08;;;;;;;5.07;1.57;;;10.30;91.20;;;;;;4958485;28;20026;-71
2022/05/30 02:59:34;;;;;;;7.30;2.10;;;10.30;91.30;;;;;;4958042;28;20471;-71
2022/05/30 03:01:59;;;;;;;4.97;1.43;;;10.30;91.40;;;;;;4958162;28;20038;-72
2022/05/30 03:04:25;;;;;;;8.43;1.63;;;10.20;91.40;;;;;;4958359;28;20031;-72
2022/05/30 03:06:51;;;;;;;7.13;2.07;;;10.20;91.40;;;;;;4975378;28;20034;-71
2022/05/30 03:09:18;;;;;;;7.07;1.80;;;10.20;91.50;;;;;;4975598;28;20015;-72
2022/05/30 03:11:44;;;;;;;6.40;1.53;;;10.20;91.50;;;;;;4975337;28;20399;-72
2022/05/30 03:14:10;;;;;;;5.13;1.80;;;10.30;91.60;;;;;;4958042;28;20031;-71
2022/05/30 03:16:35;;;;;;;6.73;1.50;;;10.10;91.60;;;;;;4975439;28;20030;-72
2022/05/30 03:19:01;;;;;;;10.23;2.17;;;10.10;91.70;;;;;;4975177;28;20026;-72
2022/05/30 03:21:27;;;;;;;4.97;1.67;;;10.10;91.70;;;;;;4958214;28;20025;-72
2022/05/30 03:23:53;;;;;;;8.33;1.60;;;10.10;92.10;;;;;;4994666;28;20042;-72
2022/05/30 03:26:19;;;;;;;9.17;2.63;;;10.00;91.90;;;;;;4957860;28;20094;-72
2022/05/30 03:28:44;;;;;;;9.00;1.80;;;10.00;91.90;;;;;;4994890;28;20033;-72
2022/05/30 03:31:10;;;;;;;6.70;1.33;;;10.00;92.00;;;;;;4993127;28;20570;-71
2022/05/30 03:33:37;;;;;;;8.03;1.63;;;10.10;92.10;;;;;;4977612;28;20081;-71
2022/05/30 03:36:10;;;;;;;6.17;1.67;;;10.00;92.10;;;;;;4992455;28;20374;-72
2022/05/30 03:38:36;;;;;;;5.30;1.53;;;10.00;92.20;;;;;;4994313;28;20092;-72
2022/05/30 03:41:02;;;;;;;5.83;1.33;;;10.00;92.20;;;;;;4994125;28;20133;-71
2022/05/30 03:43:27;;;;;;;5.37;1.50;;;10.10;92.30;;;;;;4977140;28;20023;-71
2022/05/30 03:45:53;;;;;;;5.40;1.60;;;10.10;92.40;;;;;;4992869;28;20037;-72
2022/05/30 03:48:21;;;;;;;6.17;1.70;;;10.10;92.40;;;;;;4994767;28;20092;-72
2022/05/30 03:50:48;;;;;;;6.07;1.87;;;10.20;92.40;;;;;;4976541;28;20034;-72
2022/05/30 03:53:14;;;;;;;4.47;1.13;;;10.20;92.40;;;;;;4984098;28;20038;-72
2022/05/30 03:55:43;;;;;;;8.43;1.37;;;10.20;92.40;;;;;;4976882;28;20026;-72
2022/05/30 03:58:10;;;;;;;4.57;1.23;;;10.20;92.40;;;;;;4994192;28;20022;-71
2022/05/30 04:00:36;;;;;;;5.70;1.20;;;10.30;92.40;;;;;;4994600;28;20031;-71
2022/05/30 04:03:03;;;;;;;9.50;1.60;;;10.30;92.40;;;;;;4994137;28;20050;-71
2022/05/30 04:05:29;;;;;;;6.23;1.40;;;10.30;92.40;;;;;;4974574;28;20030;-72
2022/05/30 04:07:55;;;;;;;6.07;1.40;;;10.30;92.40;;;;;;4957238;28;20030;-71
2022/05/30 04:10:21;;;;;;;4.87;1.10;;;10.30;92.40;;;;;;4974746;28;20031;-72
2022/05/30 04:12:47;;;;;;;5.63;1.60;;;10.30;92.40;;;;;;4989822;28;20026;-71
2022/05/30 04:15:23;;;;;;;3.57;1.30;;;10.40;92.40;;;;;;4973375;28;20065;-72
2022/05/30 04:17:49;;;;;;;6.50;1.60;;;10.40;92.40;;;;;;4975178;28;20054;-72
2022/05/30 04:20:16;;;;;;;10.13;1.50;;;10.40;92.40;;;;;;4993884;28;20026;-72
2022/05/30 04:22:44;;;;;;;4.70;1.30;;;10.40;92.30;;;;;;4980149;28;20023;-72
2022/05/30 04:25:11;;;;;;;4.70;0.93;;;10.50;92.40;;;;;;4973634;28;20359;-72
2022/05/30 04:27:37;;;;;;;5.57;1.57;;;10.50;92.30;;;;;;4970747;28;20027;-71
2022/05/30 04:30:04;;;;;;;6.93;1.10;;;10.60;92.40;;;;;;4974516;28;20031;-72
2022/05/30 04:32:30;;;;;;;6.90;1.33;;;10.60;92.30;;;;;;4986363;28;20093;-71
2022/05/30 04:34:56;;;;;;;6.23;1.67;;;10.60;92.30;;;;;;4996083;28;20467;-71
2022/05/30 04:37:21;;;;;;;12.37;1.30;;;10.60;92.30;;;;;;4963214;28;20551;-72
2022/05/30 04:39:47;;;;;;;4.73;1.10;;;10.70;92.30;;;;;;4963672;28;20046;-72
2022/05/30 04:42:12;;;;;;;4.03;1.25;;;10.70;92.20;;;;;;4980494;28;20034;-71
2022/05/30 04:44:38;;;;;;;2.37;0.83;;;10.70;92.20;;;;;;4948200;28;20023;-71
2022/05/30 04:47:05;;;;;;;2.83;1.00;;;10.70;92.20;;;;;;4980164;28;20505;-71
2022/05/30 04:49:31;;;;;;;4.35;1.10;;;10.70;92.20;;;;;;4995637;28;20042;-71
2022/05/30 04:51:57;;;;;;;8.18;1.10;;;10.80;92.20;;;;;;4997452;28;20363;-71
2022/05/30 04:54:24;;;;;;;4.22;1.08;;;10.80;92.20;;;;;;4997283;28;20038;-72
2022/05/30 04:56:50;;;;;;;7.57;1.50;;;10.80;92.20;;;;;;4997455;28;20032;-73
2022/05/30 04:59:15;;;;;;;7.38;1.13;;;10.80;92.20;;;;;;4997220;28;20127;-73
2022/05/30 05:01:41;;;;;;;5.97;0.88;;;10.80;92.20;;;;;;4997414;28;20042;-72
2022/05/30 05:04:09;;;;;;;4.43;1.10;;;10.90;92.20;;;;;;4994105;28;20026;-72
2022/05/30 05:06:35;;;;;;;4.30;1.00;;;10.90;92.20;;;;;;4992305;28;20042;-72
2022/05/30 05:09:07;;;;;;;6.32;1.00;;;11.00;92.20;;;;;;4977789;28;20031;-71
2022/05/30 05:11:35;;;;;;;3.72;1.05;;;10.90;92.10;;;;;;4992504;28;20034;-71
2022/05/30 05:14:01;;;;;;;2.95;0.80;;;10.90;92.10;;;;;;4977417;28;20399;-71
2022/05/30 05:16:29;;;;;;;3.72;0.98;;;10.70;92.20;;;;;;4990288;28;20038;-72
2022/05/30 05:18:55;;;;;;;4.80;0.98;;;10.70;92.30;;;;;;4979469;28;20019;-72
2022/05/30 05:21:27;;;;;;;7.55;0.93;;;10.70;92.40;;;;;;4958201;28;20042;-72
2022/05/30 05:23:53;;;;;;;6.03;0.93;;;10.70;92.50;;;;;;4979257;28;20054;-72
2022/05/30 05:26:20;;;;;;;2.88;0.70;;;10.90;93.20;;;;;;4993711;28;20025;-71
2022/05/30 05:28:47;;;;;;;5.45;0.60;;;11.10;93.60;;;;;;5013826;28;20026;-72
2022/05/30 05:31:31;;;;;;;6.30;0.50;;;11.40;94.30;;;;;;4996793;28;20394;-72
2022/05/30 05:33:57;;;;;;;7.35;0.40;;;11.70;95.00;;;;;;4978880;28;20018;-72
2022/05/30 05:36:26;;;;;;;2.53;0.50;;;11.90;95.40;;;;;;4978059;28;20129;-72
2022/05/30 05:38:51;;;;;;;2.35;0.40;;;12.20;95.90;;;;;;4970372;28;20494;-72
2022/05/30 05:41:18;;;;;;;4.60;0.60;;;12.40;96.10;;;;;;4984573;28;20050;-72
2022/05/30 05:43:43;;;;;;;2.83;0.40;;;12.70;96.40;;;;;;4986065;28;20022;-72
2022/05/30 05:46:14;;;;;;;4.35;0.60;;;13.00;96.50;;;;;;4985194;28;20026;-72
2022/05/30 05:48:39;;;;;;;2.28;0.50;;;13.20;96.60;;;;;;4959467;28;20498;-72
2022/05/30 05:51:05;;;;;;;2.90;0.20;;;13.50;96.50;;;;;;4979662;28;20035;-72
2022/05/30 05:53:31;;;;;;;4.68;0.52;;;13.70;96.30;;;;;;4984152;28;20113;-73
2022/05/30 05:55:57;;;;;;;4.65;0.40;;;13.90;96.00;;;;;;4962560;28;20536;-72
2022/05/30 05:58:23;;;;;;;4.90;0.60;;;14.10;95.50;;;;;;4991875;28;20031;-73
2022/05/30 06:00:49;;;;;;;4.93;0.43;;;14.30;95.20;;;;;;4998475;28;20520;-72
2022/05/30 06:03:14;;;;;;;3.45;0.50;;;14.40;94.80;;;;;;4986475;28;20057;-73
2022/05/30 06:05:40;;;;;;;3.90;0.50;;;14.50;94.30;;;;;;4987166;28;20026;-72
2022/05/30 06:08:06;;;;;;;2.75;0.50;;;14.60;93.40;;;;;;5010925;28;20092;-72
2022/05/30 06:11:04;;;;;;;3.38;0.50;;;14.70;92.60;;;;;;4996553;28;20035;-72
2022/05/30 06:13:18;;;;;;;5.32;0.63;;;14.50;91.70;;;;;;4995692;28;20081;-72
2022/05/30 06:15:44;;;;;;;1.80;0.50;;;14.40;91.10;;;;;;4984135;28;20122;-72
2022/05/30 06:18:10;;;;;;;5.88;0.60;;;14.30;90.50;;;;;;4958229;28;20031;-72
2022/05/30 06:20:35;;;;;;;3.75;0.60;;;14.20;89.70;;;;;;4976010;28;20037;-72
2022/05/30 06:23:01;;;;;;;2.63;0.40;;;14.10;88.60;;;;;;4975687;28;20038;-72
2022/05/30 06:25:27;;;;;;;4.05;0.47;;;14.00;87.40;;;;;;5005185;28;20026;-72
2022/05/30 06:27:52;;;;;;;2.75;0.30;;;13.90;86.30;;;;;;5013610;28;20109;-72
2022/05/30 06:30:18;;;;;;;5.88;0.40;;;13.80;85.10;;;;;;4985051;28;20367;-72
2022/05/30 06:32:43;;;;;;;2.67;0.50;;;13.70;84.60;;;;;;4995320;28;20093;-72
2022/05/30 06:35:09;;;;;;;3.45;0.30;;;13.60;84.10;;;;;;4994086;28;20035;-72
2022/05/30 06:37:35;;;;;;;4.25;0.60;;;13.50;83.60;;;;;;4992991;28;20086;-72
2022/05/30 06:40:01;;;;;;;2.28;0.73;;;13.50;83.50;;;;;;4975466;28;20046;-71
2022/05/30 06:42:26;;;;;;;3.33;0.52;;;13.50;83.20;;;;;;4959257;28;20542;-75
2022/05/30 06:44:52;;;;;;;4.28;0.70;;;13.50;82.10;;;;;;4972245;28;20027;-72
2022/05/30 06:47:18;;;;;;;2.53;0.30;;;13.50;81.80;;;;;;4973780;28;20023;-72
2022/05/30 06:49:43;;;;;;;5.82;0.45;;;13.40;81.30;;;;;;4982647;28;20089;-72
2022/05/30 06:52:11;;;;;;;4.93;0.60;;;13.40;80.50;;;;;;4981871;28;20489;-72
2022/05/30 06:54:36;;;;;;;2.97;0.60;;;13.40;80.50;;;;;;5007671;28;20026;-71
2022/05/30 06:59:48;;;;;;;3.42;0.45;;;13.40;80.40;;;;;;4986784;28;20069;-72
2022/05/30 07:02:15;;;;;;;3.92;0.57;;;13.40;79.80;;;;;;4968118;28;20031;-72
2022/05/30 07:04:41;;;;;;;3.40;0.50;;;13.40;79.70;;;;;;4987102;28;20038;-72
2022/05/30 07:07:10;;;;;;;3.40;0.40;;;13.50;79.50;;;;;;4973151;28;20034;-72
2022/05/30 07:09:38;;;;;;;3.40;0.50;;;13.50;79.50;;;;;;4984710;28;20035;-71
2022/05/30 07:12:05;;;;;;;3.13;0.40;;;13.50;78.90;;;;;;4985821;28;20035;-72
2022/05/30 07:14:31;;;;;;;5.38;0.50;;;13.60;79.00;;;;;;4988787;28;20812;-73
2022/05/30 07:16:57;;;;;;;2.45;0.30;;;13.60;79.10;;;;;;4989356;28;20034;-76
2022/05/30 07:19:23;;;;;;;5.80;0.88;;;13.70;79.00;;;;;;5009869;28;20084;-74
2022/05/30 07:21:48;;;;;;;2.55;0.45;;;13.80;78.90;;;;;;4992388;28;20058;-76
2022/05/30 07:24:14;;;;;;;4.32;0.60;;;13.80;78.30;;;;;;4960739;28;20433;-74
2022/05/30 07:26:40;;;;;;;3.80;0.52;;;13.80;78.00;;;;;;4994328;28;20034;-75
2022/05/30 07:29:06;;;;;;;5.50;0.70;;;13.80;77.00;;;;;;4976584;28;20481;-73
2022/05/30 07:31:31;;;;;;;2.80;0.57;;;13.80;77.00;;;;;;4989827;28;20497;-75
2022/05/30 07:33:58;;;;;;;5.43;0.35;;;13.70;77.50;;;;;;4995703;28;20036;-73
2022/05/30 07:36:28;;;;;;;4.53;0.60;;;13.70;77.00;;;;;;5013811;28;20030;-72
2022/05/30 07:38:54;;;;;;;2.88;0.30;;;13.70;76.90;;;;;;5013873;28;20030;-74
2022/05/30 07:41:24;;;;;;;4.65;0.50;;;13.70;76.80;;;;;;5013738;28;20052;-73
2022/05/30 07:43:50;;;;;;;3.33;0.45;;;13.70;76.50;;;;;;5011489;28;20033;-75
2022/05/30 07:46:17;;;;;;;5.85;0.50;;;13.70;76.60;;;;;;4974663;28;20027;-74
2022/05/30 07:48:44;;;;;;;6.00;0.57;;;13.70;76.70;;;;;;4957803;28;20023;-76
2022/05/30 07:51:11;;;;;;;4.70;0.47;;;13.70;76.60;;;;;;4974813;28;20070;-75
2022/05/30 07:53:39;;;;;;;5.65;0.60;;;13.70;76.50;;;;;;4976383;28;20033;-75
2022/05/30 07:56:07;;;;;;;3.90;0.43;;;13.70;76.30;;;;;;4983515;28;20035;-75
2022/05/30 07:58:33;;;;;;;2.17;0.32;;;13.60;76.20;;;;;;4957645;28;20042;-74
2022/05/30 08:00:59;;;;;;;2.63;0.30;;;13.60;75.70;;;;;;4983364;28;20093;-73
2022/05/30 08:03:26;;;;;;;2.25;0.32;;;13.60;75.60;;;;;;4957339;28;20475;-75
2022/05/30 08:06:01;;;;;;;4.15;0.60;;;13.50;75.60;;;;;;4963328;28;20105;-74
2022/05/30 08:08:27;;;;;;;3.95;0.50;;;13.50;76.40;;;;;;4958890;28;20046;-74
2022/05/30 08:10:53;;;;;;;2.25;0.30;;;13.60;75.90;;;;;;4974801;28;20035;-74
2022/05/30 08:13:19;;;;;;;1.75;0.32;;;13.70;76.10;;;;;;4941606;28;20031;-74
2022/05/30 08:15:44;;;;;;;4.13;0.63;;;13.80;76.40;;;;;;4965478;28;20031;-74
2022/05/30 08:18:15;;;;;;;1.27;0.20;;;14.00;75.30;;;;;;4993450;28;20038;-73
2022/05/30 08:20:40;;;;;;;2.17;0.60;;;14.10;74.90;;;;;;4988563;28;20042;-73
2022/05/30 08:23:07;;;;;;;2.08;0.30;;;14.10;74.40;;;;;;4984715;28;20031;-72
2022/05/30 08:25:33;;;;;;;2.58;0.30;;;14.20;74.10;;;;;;4985441;28;20030;-71
2022/05/30 08:27:58;;;;;;;4.13;0.40;;;14.40;73.90;;;;;;4955438;28;20603;-71
2022/05/30 08:30:24;;;;;;;1.40;0.30;;;14.50;73.50;;;;;;4979719;28;20060;-72
2022/05/30 08:32:50;;;;;;;2.35;0.50;;;14.50;73.00;;;;;;4965075;28;20383;-74
2022/05/30 08:35:18;;;;;;;2.75;0.20;;;14.60;72.60;;;;;;4974322;28;20097;-72
2022/05/30 08:37:45;;;;;;;3.28;0.30;;;14.70;72.50;;;;;;4972910;28;20077;-75
2022/05/30 08:43:15;;;;;;;3.30;0.20;;;14.80;72.10;;;;;;4974378;28;20112;-72
2022/05/30 08:45:42;;;;;;;2.28;0.47;;;14.80;71.20;;;;;;4988087;28;20133;-72
2022/05/30 08:48:21;;;;;;;2.75;0.30;;;14.90;71.10;;;;;;5011722;28;20026;-72
2022/05/30 08:50:59;;;;;;;3.67;0.38;;;14.90;71.10;;;;;;5006710;28;20471;-72
2022/05/30 08:53:31;;;;;;;4.78;0.40;;;15.00;70.70;;;;;;4993502;28;20027;-72
2022/05/30 08:56:11;;;;;;;2.10;0.30;;;15.00;70.50;;;;;;4975743;28;20030;-72
2022/05/30 08:58:46;;;;;;;1.77;0.30;;;15.10;70.60;;;;;;4985294;28;20031;-72
2022/05/30 09:01:39;;;;;;;2.67;0.30;;;15.10;70.50;;;;;;4987248;28;20049;-71
2022/05/30 09:04:16;;;;;;;4.47;0.30;;;15.10;70.30;;;;;;4992923;28;20462;-72
2022/05/30 09:06:49;;;;;;;2.72;0.22;;;15.10;70.10;;;;;;4994845;28;20065;-72
2022/05/30 09:09:43;;;;;;;3.03;0.30;;;15.10;69.90;;;;;;4979311;28;20026;-72
2022/05/30 09:12:20;;;;;;;1.83;0.40;;;15.20;69.80;;;;;;4986497;28;20023;-71
2022/05/30 09:14:51;;;;;;;2.15;0.30;;;15.20;69.70;;;;;;4977508;28;20130;-72
2022/05/30 09:17:23;;;;;;;2.20;0.32;;;15.20;69.40;;;;;;4977360;28;20112;-72
2022/05/30 09:19:49;;;;;;;0.98;0.30;;;15.20;69.00;;;;;;4977338;28;20102;-72
2022/05/30 09:22:16;;;;;;;1.73;0.20;;;15.30;68.80;;;;;;4977574;28;20158;-72
2022/05/30 09:25:55;;;;;;;4.28;0.38;;;15.30;68.50;;;;;;4964168;28;20447;-71
2022/05/30 09:27:33;;;;;;;2.78;0.30;;;15.30;68.20;;;;;;4963458;28;20534;-72
2022/05/30 09:30:00;;;;;;;3.00;0.30;;;15.40;68.10;;;;;;4977417;28;20058;-72
2022/05/30 09:32:32;;;;;;;2.65;0.30;;;15.50;67.90;;;;;;4977326;28;20354;-72
2022/05/30 09:35:20;;;;;;;3.03;0.40;;;15.70;67.80;;;;;;4977050;28;20038;-72
2022/05/30 09:37:45;;;;;;;3.53;0.40;;;15.90;67.50;;;;;;4992197;28;20022;-72
2022/05/30 09:40:11;;;;;;;2.28;0.40;;;16.00;67.50;;;;;;4978891;28;20047;-72
2022/05/30 09:42:49;;;;;;;3.00;0.30;;;16.10;67.30;;;;;;4979287;28;20490;-72
2022/05/30 09:45:26;;;;;;;3.53;0.40;;;16.30;66.90;;;;;;4984112;28;20042;-72
2022/05/30 09:48:02;;;;;;;4.25;0.40;;;16.40;66.60;;;;;;4977032;28;20467;-75
2022/05/30 09:50:28;;;;;;;3.00;0.50;;;16.40;65.80;;;;;;5005804;28;20037;-70
2022/05/30 09:52:54;;;;;;;1.20;0.30;;;16.40;64.90;;;;;;4986458;28;20137;-71
2022/05/30 09:55:48;;;;;;;4.47;0.60;;;16.40;64.50;;;;;;4991629;28;20037;-71
2022/05/30 09:58:14;;;;;;;3.90;0.50;;;16.20;63.30;;;;;;4990322;28;20405;-72
2022/05/30 10:00:55;;;;;;;3.50;0.65;;;16.10;63.60;;;;;;4987982;28;20344;-71
2022/05/30 10:03:40;;;;;;;2.58;0.40;;;15.90;63.60;;;;;;4996290;28;20414;-71
2022/05/30 10:06:14;;;;;;;3.67;0.40;;;15.80;63.90;;;;;;4995771;28;20479;-71
2022/05/30 10:08:40;;;;;;;3.38;0.30;;;15.80;63.70;;;;;;4986069;28;20114;-71
2022/05/30 10:11:06;;;;;;;2.15;0.30;;;15.70;63.80;;;;;;4978749;28;20105;-71
2022/05/30 10:13:41;;;;;;;3.42;0.38;;;15.70;63.90;;;;;;4995993;28;20023;-71
2022/05/30 10:16:13;;;;;;;1.05;0.30;;;15.60;64.20;;;;;;4995789;28;20034;-71
2022/05/30 10:18:57;;;;;;;2.88;0.40;;;15.60;64.20;;;;;;4994858;28;20158;-71
2022/05/30 10:21:22;;;;;;;4.00;0.57;;;15.50;63.80;;;;;;4993409;28;20475;-71
2022/05/30 10:30:51;;;;;;;3.53;0.40;;;15.20;63.40;;;;;;4970726;28;20041;-76
2022/05/30 10:33:29;;;;;;;4.35;0.40;;;15.10;63.90;;;;;;4976389;28;20053;-74
2022/05/30 10:36:32;;;;;;;6.45;0.50;;;15.20;64.30;;;;;;4983803;28;20113;-76
2022/05/30 10:39:29;;;;;;;2.40;0.43;;;15.20;64.10;;;;;;4988036;28;20031;-71
2022/05/30 10:42:03;;;;;;;2.08;0.50;;;15.20;64.40;;;;;;4975867;28;20031;-73
2022/05/30 10:44:44;;;;;;;4.13;0.60;;;15.20;64.40;;;;;;4966111;28;20107;-71
2022/05/30 10:47:33;;;;;;;2.88;0.50;;;15.20;64.50;;;;;;4980895;28;20098;-72
2022/05/30 10:50:11;;;;;;;2.97;0.45;;;15.20;64.20;;;;;;4986005;28;20101;-72
2022/05/30 10:53:00;;;;;;;7.25;0.70;;;15.30;64.20;;;;;;4995376;28;20478;-73
2022/05/30 10:55:35;;;;;;;4.32;0.77;;;15.30;64.10;;;;;;4989744;28;20029;-73
2022/05/30 10:58:21;;;;;;;3.58;0.40;;;15.30;64.00;;;;;;4975691;28;20034;-73
2022/05/30 11:00:52;;;;;;;3.75;0.70;;;15.40;64.10;;;;;;4975670;28;20376;-73
2022/05/30 11:03:25;;;;;;;3.20;0.55;;;15.40;64.00;;;;;;4958303;28;20066;-73
2022/05/30 11:05:55;;;;;;;2.35;0.60;;;15.40;64.10;;;;;;4975666;28;20033;-71
2022/05/30 11:08:58;;;;;;;1.90;0.43;;;15.60;64.20;;;;;;4978795;28;20120;-71
2022/05/30 11:11:30;;;;;;;2.60;0.47;;;15.60;64.00;;;;;;4986933;28;20092;-71
2022/05/30 11:13:59;;;;;;;2.72;0.47;;;15.70;64.00;;;;;;4994311;28;20035;-72
2022/05/30 11:16:48;;;;;;;4.20;0.85;;;15.80;63.70;;;;;;4993662;28;20524;-71
2022/05/30 11:19:24;;;;;;;1.75;0.70;;;15.80;63.40;;;;;;4994325;28;20113;-71
2022/05/30 11:22:01;;;;;;;2.92;0.45;;;15.90;63.60;;;;;;4994849;28;20445;-76
2022/05/30 11:24:27;;;;;;;4.60;1.23;;;16.10;63.50;;;;;;4994017;28;20418;-71
2022/05/30 11:27:28;;;;;;;3.20;0.70;;;16.20;63.30;;;;;;4994253;28;20058;-72
2022/05/30 11:30:18;;;;;;;1.75;0.40;;;16.30;62.90;;;;;;4994579;28;20030;-72
2022/05/30 11:32:52;;;;;;;4.03;0.47;;;16.50;63.00;;;;;;4994689;28;20041;-72
2022/05/30 11:35:36;;;;;;;1.67;0.43;;;16.60;62.80;;;;;;4994547;28;20037;-73
2022/05/30 11:38:30;;;;;;;3.17;0.70;;;16.70;62.00;;;;;;4977437;28;20068;-72
2022/05/30 11:41:26;;;;;;;2.65;0.38;;;16.90;61.20;;;;;;4976523;28;20046;-72
2022/05/30 11:44:17;;;;;;;7.15;0.75;;;17.00;61.20;;;;;;4993286;28;20447;-72
2022/05/30 11:46:57;;;;;;;1.30;0.40;;;17.20;61.40;;;;;;4994382;28;20426;-72
2022/05/30 11:49:37;;;;;;;3.65;0.50;;;17.40;61.30;;;;;;4994444;28;20466;-72
2022/05/30 11:52:23;;;;;;;3.22;0.50;;;17.50;60.60;;;;;;4987974;28;20027;-72
2022/05/30 11:55:12;;;;;;;2.63;0.50;;;17.70;60.00;;;;;;4984484;28;20449;-72
2022/05/30 11:57:47;;;;;;;2.10;0.70;;;17.80;60.10;;;;;;4990491;28;20037;-72
2022/05/30 12:00:34;;;;;;;1.73;0.50;;;18.00;60.00;;;;;;4984239;28;20429;-72
2022/05/30 12:03:30;;;;;;;3.90;0.65;;;18.30;59.80;;;;;;4988078;28;20033;-72
2022/05/30 12:06:11;;;;;;;3.30;0.57;;;18.50;58.90;;;;;;5000254;28;20113;-73
2022/05/30 12:08:42;;;;;;;2.45;0.95;;;18.70;58.60;;;;;;5004195;28;20030;-72
2022/05/30 12:11:21;;;;;;;1.55;0.45;;;18.80;58.30;;;;;;4994009;28;20038;-72
2022/05/30 12:14:06;;;;;;;2.03;0.40;;;19.00;57.60;;;;;;4993674;28;20097;-72
2022/05/30 12:16:46;;;;;;;4.72;0.73;;;19.10;57.10;;;;;;4990328;28;20518;-72
2022/05/30 12:24:51;;;;;;;3.47;0.40;;;19.70;55.80;;;;;;4987456;28;20085;-72
2022/05/30 12:27:26;;;;;;;3.20;0.50;;;19.90;55.60;;;;;;4993662;28;20036;-72
2022/05/30 12:29:53;;;;;;;2.75;0.40;;;20.20;54.90;;;;;;4993416;28;20030;-72
2022/05/30 12:32:21;;;;;;;3.15;0.60;;;20.40;55.00;;;;;;4996499;28;20402;-72
2022/05/30 12:37:48;;;;;;;2.28;0.30;;;20.80;54.40;;;;;;4993326;28;20069;-73
2022/05/30 12:40:26;;;;;;;1.75;0.40;;;21.00;54.20;;;;;;4984330;28;20121;-73
2022/05/30 12:43:07;;;;;;;5.00;0.38;;;21.00;53.90;;;;;;4978832;28;20430;-73
2022/05/30 12:45:36;;;;;;;2.28;0.40;;;21.00;53.60;;;;;;4960460;28;20379;-73
2022/05/30 12:48:12;;;;;;;3.22;0.50;;;20.90;53.40;;;;;;4977854;28;20019;-73
2022/05/30 12:50:56;;;;;;;3.08;0.40;;;20.80;53.40;;;;;;4995672;28;20045;-73
2022/05/30 12:53:44;;;;;;;2.10;0.40;;;20.70;53.60;;;;;;4993775;28;20398;-72
2022/05/30 12:56:10;;;;;;;4.57;0.50;;;20.60;53.70;;;;;;4995595;28;20027;-73
2022/05/30 12:58:35;;;;;;;3.20;0.50;;;20.50;54.40;;;;;;4994727;28;20031;-73
2022/05/30 13:01:22;;;;;;;1.70;0.40;;;20.50;53.60;;;;;;4996802;28;20428;-73
2022/05/30 13:04:29;;;;;;;7.43;0.60;;;20.50;53.30;;;;;;4995917;28;20476;-73
2022/05/30 13:06:58;;;;;;;5.15;0.40;;;20.50;53.20;;;;;;4995694;28;20022;-73
2022/05/30 13:09:40;;;;;;;2.85;0.65;;;20.50;53.30;;;;;;4992927;28;20105;-74
2022/05/30 13:12:14;;;;;;;5.13;0.70;;;20.60;53.00;;;;;;4980392;28;20044;-73
2022/05/30 13:15:07;;;;;;;2.40;0.45;;;20.70;52.60;;;;;;4988365;28;20031;-74
2022/05/30 13:18:03;;;;;;;2.25;0.50;;;20.90;51.80;;;;;;4959748;28;20034;-73
2022/05/30 13:20:44;;;;;;;2.28;0.47;;;21.10;51.40;;;;;;4971965;28;20041;-73
2022/05/30 13:23:15;;;;;;;1.80;0.40;;;21.20;51.00;;;;;;4993647;28;20023;-73
2022/05/30 13:25:47;;;;;;;2.95;0.55;;;21.30;50.80;;;;;;4990824;28;20106;-73
2022/05/30 13:28:27;;;;;;;1.80;0.30;;;21.20;50.30;;;;;;4995208;28;20041;-73
2022/05/30 13:30:54;;;;;;;1.33;0.43;;;21.30;49.70;;;;;;4995161;28;20481;-73
2022/05/30 13:33:27;;;;;;;2.03;0.32;;;21.30;49.40;;;;;;4994284;28;20030;-73